createdAt,value
2018-07-08T00:01:08.830Z,14.30
2018-07-08T00:03:36.885Z,14.20
2018-07-08T00:06:04.985Z,14.30
2018-07-08T00:08:33.033Z,14.20
2018-07-08T00:11:01.114Z,14.20
2018-07-08T00:13:29.161Z,14.10
2018-07-08T00:15:57.238Z,14.10
2018-07-08T00:18:25.557Z,14.10
2018-07-08T00:20:54.993Z,14.10
2018-07-08T00:23:23.783Z,14.10
2018-07-08T00:25:51.858Z,14.10
2018-07-08T00:28:20.061Z,14.10
2018-07-08T00:30:48.134Z,14.00
2018-07-08T00:33:16.168Z,14.00
2018-07-08T00:35:44.206Z,13.90
2018-07-08T00:38:12.442Z,14.00
2018-07-08T00:40:40.519Z,13.90
2018-07-08T00:43:08.565Z,13.90
2018-07-08T00:45:36.637Z,13.90
2018-07-08T00:48:04.690Z,13.80
2018-07-08T00:50:32.737Z,13.90
2018-07-08T00:53:00.769Z,13.90
2018-07-08T00:55:28.817Z,13.90
2018-07-08T00:57:56.862Z,13.90
2018-07-08T01:00:35.209Z,13.90
2018-07-08T01:03:04.494Z,13.80
2018-07-08T01:05:32.572Z,13.90
2018-07-08T01:08:01.501Z,13.90
2018-07-08T01:10:30.004Z,13.80
2018-07-08T01:12:58.433Z,13.70
2018-07-08T01:15:26.581Z,13.80
2018-07-08T01:17:54.646Z,13.80
2018-07-08T01:20:23.161Z,13.90
2018-07-08T01:22:51.666Z,13.90
2018-07-08T01:27:53.162Z,13.90
2018-07-08T01:30:21.213Z,13.90
2018-07-08T01:32:49.282Z,13.90
2018-07-08T01:35:17.326Z,13.90
2018-07-08T01:37:45.365Z,13.70
2018-07-08T01:40:13.441Z,13.70
2018-07-08T01:42:41.485Z,13.70
2018-07-08T01:45:09.554Z,13.70
2018-07-08T01:47:37.629Z,13.70
2018-07-08T01:50:05.674Z,13.80
2018-07-08T01:52:33.717Z,13.80
2018-07-08T01:55:01.778Z,13.90
2018-07-08T01:57:30.206Z,13.80
2018-07-08T01:59:58.486Z,14.00
2018-07-08T02:02:26.552Z,14.00
2018-07-08T02:04:54.602Z,14.00
2018-07-08T02:07:22.637Z,14.00
2018-07-08T02:09:50.723Z,13.90
2018-07-08T02:12:18.835Z,13.90
2018-07-08T02:14:47.149Z,14.10
2018-07-08T02:17:15.189Z,14.10
2018-07-08T02:19:43.242Z,14.00
2018-07-08T02:22:11.301Z,14.00
2018-07-08T02:24:39.732Z,13.80
2018-07-08T02:27:07.824Z,13.80
2018-07-08T02:29:37.101Z,13.70
2018-07-08T02:32:05.306Z,13.70
2018-07-08T02:34:33.343Z,13.70
2018-07-08T02:37:01.933Z,13.60
2018-07-08T02:39:30.176Z,13.60
2018-07-08T02:41:58.231Z,13.50
2018-07-08T02:44:26.294Z,13.50
2018-07-08T02:49:23.134Z,13.50
2018-07-08T02:51:51.217Z,13.50
2018-07-08T02:54:19.494Z,13.50
2018-07-08T02:56:47.569Z,13.50
2018-07-08T03:01:43.694Z,13.60
2018-07-08T03:04:11.858Z,13.60
2018-07-08T03:09:09.106Z,13.60
2018-07-08T03:11:37.510Z,13.40
2018-07-08T03:14:05.749Z,13.40
2018-07-08T03:19:01.942Z,13.40
2018-07-08T03:21:29.978Z,13.40
2018-07-08T03:23:58.170Z,13.30
2018-07-08T03:26:26.261Z,13.10
2018-07-08T03:31:22.429Z,13.10
2018-07-08T03:33:50.470Z,13.10
2018-07-08T03:36:18.538Z,13.10
2018-07-08T03:38:46.593Z,13.10
2018-07-08T03:41:14.635Z,13.10
2018-07-08T03:43:42.661Z,13.20
2018-07-08T03:46:10.798Z,13.10
2018-07-08T03:48:39.289Z,13.20
2018-07-08T03:51:07.442Z,13.20
2018-07-08T03:53:35.505Z,13.20
2018-07-08T03:56:03.632Z,13.20
2018-07-08T03:58:31.846Z,13.20
2018-07-08T04:00:59.891Z,13.20
2018-07-08T04:03:28.169Z,13.10
2018-07-08T04:05:56.229Z,13.10
2018-07-08T04:08:24.267Z,13.10
2018-07-08T04:10:52.483Z,13.20
2018-07-08T04:13:20.534Z,13.10
2018-07-08T04:18:16.490Z,13.10
2018-07-08T04:20:44.534Z,13.20
2018-07-08T04:23:12.609Z,13.20
2018-07-08T04:25:40.638Z,13.30
2018-07-08T04:28:08.718Z,13.30
2018-07-08T04:30:36.794Z,13.40
2018-07-08T04:33:04.866Z,13.40
2018-07-08T04:35:32.921Z,13.40
2018-07-08T04:38:00.961Z,13.40
2018-07-08T04:40:29.022Z,13.40
2018-07-08T04:42:57.091Z,13.40
2018-07-08T04:45:25.115Z,13.50
2018-07-08T04:47:53.152Z,13.50
2018-07-08T04:50:21.209Z,13.40
2018-07-08T04:52:49.245Z,13.40
2018-07-08T04:55:17.293Z,13.50
2018-07-08T04:57:45.353Z,13.60
2018-07-08T05:00:13.383Z,13.60
2018-07-08T05:02:41.421Z,13.60
2018-07-08T05:05:09.461Z,13.70
2018-07-08T05:07:37.529Z,13.60
2018-07-08T05:10:05.667Z,13.60
2018-07-08T05:12:33.730Z,13.60
2018-07-08T05:15:01.954Z,13.70
2018-07-08T05:17:30.013Z,13.70
2018-07-08T05:19:58.057Z,13.80
2018-07-08T05:22:26.101Z,13.90
2018-07-08T05:24:54.187Z,13.90
2018-07-08T05:27:22.220Z,13.90
2018-07-08T05:29:50.444Z,14.00
2018-07-08T05:32:18.470Z,14.10
2018-07-08T05:34:46.489Z,14.10
2018-07-08T05:37:14.526Z,14.20
2018-07-08T05:39:42.558Z,14.20
2018-07-08T05:42:10.619Z,14.20
2018-07-08T05:44:38.646Z,14.20
2018-07-08T05:47:06.858Z,14.40
2018-07-08T05:49:34.930Z,14.50
2018-07-08T05:52:02.990Z,14.50
2018-07-08T05:54:31.058Z,14.50
2018-07-08T05:56:59.109Z,14.60
2018-07-08T05:59:27.153Z,14.70
2018-07-08T06:01:55.190Z,14.60
2018-07-08T06:04:23.235Z,14.60
2018-07-08T06:06:51.296Z,14.70
2018-07-08T06:09:19.362Z,14.80
2018-07-08T06:11:47.402Z,14.90
2018-07-08T06:14:15.445Z,15.10
2018-07-08T06:16:43.568Z,15.10
2018-07-08T06:19:11.584Z,15.00
2018-07-08T06:21:39.645Z,15.20
2018-07-08T06:24:07.702Z,15.20
2018-07-08T06:26:35.878Z,15.20
2018-07-08T06:29:04.105Z,15.20
2018-07-08T06:31:32.176Z,15.20
2018-07-08T06:34:00.239Z,15.40
2018-07-08T06:36:28.270Z,15.40
2018-07-08T06:38:56.330Z,15.50
2018-07-08T06:41:24.373Z,15.60
2018-07-08T06:43:52.425Z,15.60
2018-07-08T06:46:20.494Z,15.70
2018-07-08T06:48:48.573Z,15.80
2018-07-08T06:51:16.642Z,15.90
2018-07-08T06:53:44.686Z,15.90
2018-07-08T06:56:12.758Z,15.90
2018-07-08T06:58:40.794Z,15.90
2018-07-08T07:01:08.840Z,16.00
2018-07-08T07:03:36.992Z,16.00
2018-07-08T07:06:05.389Z,16.00
2018-07-08T07:08:33.590Z,16.10
2018-07-08T07:11:01.633Z,16.10
2018-07-08T07:15:57.629Z,16.40
2018-07-08T07:18:25.713Z,16.60
2018-07-08T07:20:53.778Z,16.70
2018-07-08T07:23:22.378Z,16.80
2018-07-08T07:25:50.534Z,16.70
2018-07-08T07:28:18.650Z,16.60
2018-07-08T07:30:46.689Z,16.60
2018-07-08T07:33:14.789Z,16.60
2018-07-08T07:35:42.862Z,16.60
2018-07-08T07:38:10.986Z,16.60
2018-07-08T07:43:07.109Z,16.90
2018-07-08T07:45:35.181Z,16.90
2018-07-08T07:48:03.299Z,17.20
2018-07-08T07:50:31.367Z,17.30
2018-07-08T07:52:59.462Z,17.50
2018-07-08T07:55:27.534Z,17.60
2018-07-08T07:57:55.649Z,17.60
2018-07-08T08:00:23.693Z,17.80
2018-07-08T08:02:51.745Z,18.00
2018-07-08T08:05:19.796Z,18.00
2018-07-08T08:07:47.841Z,18.20
2018-07-08T08:10:15.939Z,18.20
2018-07-08T08:12:44.014Z,18.40
2018-07-08T08:15:12.114Z,18.40
2018-07-08T08:17:40.190Z,18.20
2018-07-08T08:25:04.321Z,18.20
2018-07-08T08:27:32.390Z,18.10
2018-07-08T08:30:00.558Z,18.30
2018-07-08T08:32:28.619Z,18.40
2018-07-08T08:34:59.016Z,18.60
2018-07-08T08:37:31.229Z,18.60
2018-07-08T08:39:59.281Z,18.60
2018-07-08T08:42:27.344Z,18.70
2018-07-08T08:44:56.192Z,18.70
2018-07-08T08:47:24.641Z,18.70
2018-07-08T08:49:53.266Z,19.10
2018-07-08T08:52:21.376Z,19.10
2018-07-08T08:54:49.646Z,19.30
2018-07-08T08:57:17.716Z,19.10
2018-07-08T08:59:45.790Z,19.20
2018-07-08T09:02:13.869Z,19.10
2018-07-08T09:04:42.673Z,19.40
2018-07-08T09:07:11.881Z,19.10
2018-07-08T09:09:39.938Z,19.00
2018-07-08T09:12:08.440Z,19.10
2018-07-08T09:14:36.905Z,19.10
2018-07-08T09:17:05.022Z,19.50
2018-07-08T09:19:33.065Z,19.50
2018-07-08T09:22:01.158Z,19.50
2018-07-08T09:24:29.195Z,19.50
2018-07-08T09:26:57.298Z,19.70
2018-07-08T09:29:25.455Z,19.70
2018-07-08T09:31:53.477Z,19.70
2018-07-08T09:34:21.679Z,19.70
2018-07-08T09:36:49.753Z,19.70
2018-07-08T09:39:17.909Z,19.70
2018-07-08T09:41:46.518Z,19.60
2018-07-08T09:44:16.489Z,19.70
2018-07-08T09:46:45.522Z,19.70
2018-07-08T09:49:13.897Z,19.80
2018-07-08T09:51:42.169Z,19.90
2018-07-08T09:54:10.219Z,20.10
2018-07-08T09:56:38.309Z,19.80
2018-07-08T09:59:06.396Z,19.80
2018-07-08T10:01:39.813Z,19.90
2018-07-08T10:04:09.110Z,20.20
2018-07-08T10:06:37.189Z,20.10
2018-07-08T10:09:07.077Z,20.10
2018-07-08T10:11:35.190Z,20.20
2018-07-08T10:14:03.251Z,20.40
2018-07-08T10:16:31.305Z,20.20
2018-07-08T10:18:59.358Z,20.10
2018-07-08T10:21:27.518Z,20.20
2018-07-08T10:23:55.538Z,20.40
2018-07-08T10:26:23.697Z,20.70
2018-07-08T10:28:51.753Z,20.80
2018-07-08T10:31:30.405Z,20.90
2018-07-08T10:33:58.844Z,21.10
2018-07-08T10:36:26.901Z,21.20
2018-07-08T10:38:54.947Z,21.20
2018-07-08T10:41:23.014Z,21.40
2018-07-08T10:43:51.113Z,21.40
2018-07-08T10:46:19.156Z,21.50
2018-07-08T10:48:47.244Z,21.30
2018-07-08T10:51:15.285Z,21.50
2018-07-08T10:53:43.363Z,21.40
2018-07-08T10:56:11.423Z,21.10
2018-07-08T10:58:40.240Z,21.30
2018-07-08T11:01:08.283Z,21.20
2018-07-08T11:03:36.342Z,21.30
2018-07-08T11:06:04.376Z,21.10
2018-07-08T11:08:32.414Z,21.20
2018-07-08T11:11:00.490Z,21.10
2018-07-08T11:13:28.777Z,21.10
2018-07-08T11:15:56.842Z,21.30
2018-07-08T11:18:24.902Z,21.50
2018-07-08T11:20:52.968Z,21.60
2018-07-08T11:23:22.032Z,21.60
2018-07-08T11:28:18.005Z,21.70
2018-07-08T11:30:46.047Z,21.80
2018-07-08T11:33:14.098Z,21.60
2018-07-08T11:35:42.141Z,21.50
2018-07-08T11:38:10.225Z,21.60
2018-07-08T11:40:38.829Z,21.60
2018-07-08T11:45:34.797Z,21.70
2018-07-08T11:48:02.869Z,21.90
2018-07-08T11:50:30.931Z,21.90
2018-07-08T11:52:59.003Z,22.00
2018-07-08T11:55:27.109Z,22.00
2018-07-08T11:57:55.221Z,22.20
2018-07-08T12:00:23.286Z,22.40
2018-07-08T12:02:51.330Z,22.40
2018-07-08T12:05:19.603Z,22.20
2018-07-08T12:07:47.643Z,22.20
2018-07-08T12:10:15.709Z,22.40
2018-07-08T12:12:43.979Z,22.30
2018-07-08T12:15:12.011Z,22.10
2018-07-08T12:17:40.069Z,22.20
2018-07-08T12:20:08.108Z,22.50
2018-07-08T12:22:36.173Z,22.20
2018-07-08T12:25:04.225Z,22.20
2018-07-08T12:27:32.332Z,22.20
2018-07-08T12:30:00.390Z,22.20
2018-07-08T12:32:28.439Z,22.50
2018-07-08T12:34:56.500Z,22.50
2018-07-08T12:37:24.534Z,22.70
2018-07-08T12:39:52.594Z,22.90
2018-07-08T12:42:20.665Z,22.60
2018-07-08T12:44:48.934Z,22.70
2018-07-08T12:47:16.867Z,22.80
2018-07-08T12:49:44.950Z,22.60
2018-07-08T12:52:12.998Z,22.60
2018-07-08T12:54:41.056Z,22.60
2018-07-08T12:57:09.121Z,22.50
2018-07-08T12:59:37.207Z,22.50
2018-07-08T13:02:05.253Z,22.70
2018-07-08T13:04:33.310Z,22.70
2018-07-08T13:07:01.386Z,22.90
2018-07-08T13:09:29.451Z,23.20
2018-07-08T13:11:57.503Z,22.80
2018-07-08T13:14:25.575Z,22.80
2018-07-08T13:16:53.786Z,23.00
2018-07-08T13:19:21.846Z,22.70
2018-07-08T13:21:49.934Z,22.80
2018-07-08T13:24:17.987Z,22.80
2018-07-08T13:26:46.066Z,22.90
2018-07-08T13:29:14.112Z,22.70
2018-07-08T13:31:42.182Z,22.70
2018-07-08T13:34:10.265Z,23.00
2018-07-08T13:36:38.655Z,23.00
2018-07-08T13:41:35.174Z,22.50
2018-07-08T13:44:03.253Z,22.50
2018-07-08T13:46:31.464Z,22.80
2018-07-08T13:48:59.652Z,22.90
2018-07-08T13:51:27.952Z,23.10
2018-07-08T13:53:56.125Z,23.10
2018-07-08T13:56:24.238Z,23.30
2018-07-08T13:58:52.443Z,23.20
2018-07-08T14:03:48.408Z,23.00
2018-07-08T14:06:16.541Z,23.20
2018-07-08T14:08:44.638Z,23.20
2018-07-08T14:11:12.722Z,23.40
2018-07-08T14:13:40.768Z,23.60
2018-07-08T14:18:36.967Z,23.30
2018-07-08T14:21:05.039Z,23.40
2018-07-08T14:23:33.164Z,23.40
2018-07-08T14:26:01.203Z,23.50
2018-07-08T14:28:29.378Z,23.70
2018-07-08T14:30:57.486Z,23.50
2018-07-08T14:33:25.807Z,23.50
2018-07-08T14:35:53.909Z,23.70
2018-07-08T14:38:21.948Z,23.80
2018-07-08T14:40:50.049Z,23.90
2018-07-08T14:43:18.133Z,24.00
2018-07-08T14:45:46.232Z,23.60
2018-07-08T14:48:14.331Z,23.70
2018-07-08T14:50:42.450Z,23.70
2018-07-08T14:53:11.518Z,23.70
2018-07-08T14:55:39.590Z,23.90
2018-07-08T14:58:07.642Z,23.30
2018-07-08T15:00:35.691Z,23.50
2018-07-08T15:05:31.633Z,23.80
2018-07-08T15:08:00.673Z,24.10
2018-07-08T15:10:28.749Z,24.50
2018-07-08T15:12:56.809Z,24.30
2018-07-08T15:15:24.942Z,23.50
2018-07-08T15:17:52.971Z,23.50
2018-07-08T15:20:21.031Z,23.90
2018-07-08T15:22:49.094Z,24.00
2018-07-08T15:25:17.159Z,24.00
2018-07-08T15:27:45.245Z,23.60
2018-07-08T15:30:13.302Z,23.50
2018-07-08T15:32:41.370Z,23.60
2018-07-08T15:35:09.466Z,23.80
2018-07-08T15:37:38.190Z,23.70
2018-07-08T15:40:06.259Z,23.30
2018-07-08T15:42:34.446Z,23.30
2018-07-08T15:45:02.610Z,23.60
2018-07-08T15:47:30.796Z,23.70
2018-07-08T15:49:58.798Z,24.00
2018-07-08T15:52:26.874Z,24.10
2018-07-08T15:54:54.953Z,24.20
2018-07-08T15:57:23.006Z,24.20
2018-07-08T15:59:51.054Z,24.00
2018-07-08T16:02:19.854Z,24.20
2018-07-08T16:04:47.890Z,24.00
2018-07-08T16:07:15.949Z,23.60
2018-07-08T16:09:44.018Z,23.60
2018-07-08T16:12:12.086Z,24.10
2018-07-08T16:14:40.212Z,24.10
2018-07-08T16:17:08.286Z,24.20
2018-07-08T16:19:36.370Z,24.10
2018-07-08T16:24:32.917Z,24.30
2018-07-08T16:27:00.992Z,24.10
2018-07-08T16:29:29.041Z,23.80
2018-07-08T16:31:57.118Z,23.90
2018-07-08T16:34:25.170Z,24.40
2018-07-08T16:36:53.389Z,24.50
2018-07-08T16:39:21.487Z,24.70
2018-07-08T16:41:49.568Z,24.90
2018-07-08T16:44:17.627Z,24.90
2018-07-08T16:46:45.670Z,24.30
2018-07-08T16:49:13.726Z,24.10
2018-07-08T16:51:41.817Z,23.10
2018-07-08T16:54:09.858Z,23.10
2018-07-08T16:59:05.885Z,22.50
2018-07-08T17:04:01.979Z,22.30
2018-07-08T17:06:30.222Z,22.10
2018-07-08T17:08:58.353Z,22.00
2018-07-08T17:11:26.400Z,22.10
2018-07-08T17:13:54.451Z,21.80
2018-07-08T17:16:22.584Z,21.80
2018-07-08T17:18:50.636Z,21.50
2018-07-08T17:21:19.582Z,21.80
2018-07-08T17:23:47.673Z,21.70
2018-07-08T17:26:16.665Z,21.80
2018-07-08T17:28:44.737Z,22.20
2018-07-08T17:31:12.786Z,23.60
2018-07-08T17:33:40.821Z,23.70
2018-07-08T17:36:09.300Z,23.90
2018-07-08T17:38:37.510Z,23.20
2018-07-08T17:41:05.814Z,23.10
2018-07-08T17:43:33.854Z,23.30
2018-07-08T17:46:01.996Z,23.20
2018-07-08T17:48:30.039Z,22.30
2018-07-08T17:50:58.114Z,21.40
2018-07-08T17:53:26.384Z,21.30
2018-07-08T17:55:54.426Z,21.30
2018-07-08T17:58:22.549Z,21.60
2018-07-08T18:00:50.718Z,21.60
2018-07-08T18:03:19.161Z,21.50
2018-07-08T18:05:47.249Z,21.50
2018-07-08T18:08:15.316Z,21.30
2018-07-08T18:10:43.382Z,21.10
2018-07-08T18:13:11.438Z,20.90
2018-07-08T18:15:40.207Z,20.80
2018-07-08T18:18:08.339Z,20.80
2018-07-08T18:20:36.379Z,20.40
2018-07-08T18:23:04.817Z,20.30
2018-07-08T18:30:28.631Z,20.20
2018-07-08T18:32:56.678Z,19.90
2018-07-08T18:35:24.737Z,19.90
2018-07-08T18:37:52.817Z,19.90
2018-07-08T18:40:22.023Z,19.80
2018-07-08T18:47:50.975Z,19.60
2018-07-08T18:50:19.104Z,19.60
2018-07-08T18:55:15.176Z,19.50
2018-07-08T18:57:43.246Z,19.50
2018-07-08T19:00:11.306Z,19.20
2018-07-08T19:02:39.347Z,19.40
2018-07-08T19:05:07.521Z,19.50
2018-07-08T19:07:35.579Z,19.50
2018-07-08T19:10:03.730Z,19.20
2018-07-08T19:12:32.529Z,19.00
2018-07-08T19:15:00.610Z,18.80
2018-07-08T19:17:28.737Z,18.80
2018-07-08T19:19:56.785Z,18.80
2018-07-08T19:22:24.842Z,18.70
2018-07-08T19:24:52.887Z,18.80
2018-07-08T19:27:21.854Z,18.80
2018-07-08T19:29:49.927Z,18.70
2018-07-08T19:32:18.067Z,18.60
2018-07-08T19:34:46.133Z,18.50
2018-07-08T19:37:14.232Z,18.60
2018-07-08T19:39:42.301Z,18.50
2018-07-08T19:42:10.370Z,18.30
2018-07-08T19:44:38.438Z,18.30
2018-07-08T19:47:06.612Z,18.20
2018-07-08T19:49:34.650Z,18.00
2018-07-08T19:52:02.742Z,18.10
2018-07-08T19:56:58.691Z,18.00
2018-07-08T19:59:26.786Z,17.90
2018-07-08T20:01:54.830Z,17.80
2018-07-08T20:04:22.902Z,17.70
2018-07-08T20:06:50.972Z,17.70
2018-07-08T20:09:19.047Z,17.70
2018-07-08T20:14:14.978Z,17.50
2018-07-08T20:16:43.027Z,17.50
2018-07-08T20:21:39.181Z,17.40
2018-07-08T20:24:07.301Z,17.40
2018-07-08T20:26:35.422Z,17.30
2018-07-08T20:29:04.087Z,17.30
2018-07-08T20:31:32.135Z,17.20
2018-07-08T20:34:00.280Z,17.30
2018-07-08T20:36:29.132Z,17.30
2018-07-08T20:38:57.197Z,17.10
2018-07-08T20:41:25.249Z,17.00
2018-07-08T20:43:53.985Z,17.00
2018-07-08T20:46:22.402Z,16.90
2018-07-08T20:48:50.581Z,16.90
2018-07-08T20:51:18.678Z,17.00
2018-07-08T20:53:46.881Z,17.00
2018-07-08T20:56:14.994Z,16.90
2018-07-08T20:58:43.470Z,16.80
2018-07-08T21:01:11.576Z,16.80
2018-07-08T21:03:39.995Z,16.90
2018-07-08T21:08:37.582Z,16.70
2018-07-08T21:11:05.826Z,16.70
2018-07-08T21:13:34.646Z,16.60
2018-07-08T21:16:02.682Z,16.50
2018-07-08T21:20:58.719Z,16.50
2018-07-08T21:23:26.797Z,16.50
2018-07-08T21:25:54.896Z,16.50
2018-07-08T21:28:23.073Z,16.60
2018-07-08T21:30:51.201Z,16.50
2018-07-08T21:38:15.049Z,16.60
2018-07-08T21:40:43.114Z,16.50
2018-07-08T21:43:11.414Z,16.50
2018-07-08T21:45:39.510Z,16.40
2018-07-08T21:48:07.553Z,16.40
2018-07-08T21:53:03.536Z,16.20
2018-07-08T21:55:31.607Z,16.10
2018-07-08T21:57:59.651Z,16.10
2018-07-08T22:05:25.809Z,16.00
2018-07-08T22:10:29.633Z,16.10
2018-07-08T22:15:26.835Z,16.00
2018-07-08T22:20:23.297Z,15.90
2018-07-08T22:22:51.346Z,15.90
2018-07-08T22:25:19.414Z,15.90
2018-07-08T22:30:15.741Z,15.90
2018-07-08T22:35:11.631Z,15.80
2018-07-08T22:37:39.692Z,15.80
2018-07-08T22:40:08.117Z,16.00
2018-07-08T22:42:36.333Z,15.70
2018-07-08T22:45:04.702Z,15.80
2018-07-08T22:47:32.758Z,15.70
2018-07-08T22:50:00.857Z,15.60
2018-07-08T22:52:28.885Z,15.60
2018-07-08T22:54:56.938Z,15.50
2018-07-08T22:57:24.986Z,15.50
2018-07-08T23:00:04.578Z,15.70
2018-07-08T23:02:39.268Z,15.70
2018-07-08T23:07:35.288Z,15.50
2018-07-08T23:12:31.163Z,15.50
2018-07-08T23:17:27.271Z,15.30
2018-07-08T23:19:55.336Z,15.40
2018-07-08T23:22:33.962Z,15.40
2018-07-08T23:25:02.193Z,15.40
2018-07-08T23:27:30.269Z,15.20
2018-07-08T23:29:58.314Z,15.30
2018-07-08T23:32:26.510Z,15.30
2018-07-08T23:34:54.604Z,15.30
2018-07-08T23:37:22.641Z,15.30
2018-07-08T23:39:50.759Z,15.30
2018-07-08T23:42:18.834Z,15.30
2018-07-08T23:47:14.850Z,15.30
2018-07-08T23:54:38.986Z,15.30
2018-07-08T23:57:07.083Z,15.20
2018-07-08T23:59:35.199Z,15.20
